Time;durP1;ratioP1;P1;durP2;ratioP2;P2;SDS_P1;SDS_P2;PMS_P1;PMS_P2;Temp;Humidity;BMP_temperature;BMP_pressure;BME280_temperature;BME280_humidity;BME280_pressure;Samples;Min_cycle;Max_cycle;Signal;HPM_P1;HPM_P2
2021/08/17 00:00:36;;;;;;;19.73;14.77;;;;;;;20.12;72.88;100115.58;1716284;82;21648;-76
2021/08/17 00:03:03;;;;;;;18.70;15.00;;;;;;;20.13;72.95;100116.38;1720137;81;21537;-75
2021/08/17 00:05:29;;;;;;;18.83;14.73;;;;;;;20.11;73.10;100114.57;1778630;78;21561;-76
2021/08/17 00:07:56;;;;;;;18.20;15.00;;;;;;;20.09;73.18;100116.81;1779510;78;21015;-76
2021/08/17 00:10:24;;;;;;;20.33;15.33;;;;;;;20.07;73.26;100110.38;1788624;78;20995;-75
2021/08/17 00:12:53;;;;;;;19.63;15.37;;;;;;;20.04;73.44;100109.68;1774536;78;21023;-75
2021/08/17 00:15:19;;;;;;;19.03;14.87;;;;;;;20.01;73.66;100109.55;1750446;79;21035;-76
2021/08/17 00:17:46;;;;;;;17.33;14.67;;;;;;;19.98;73.68;100112.36;1783905;78;22598;-76
2021/08/17 00:20:13;;;;;;;17.70;14.87;;;;;;;19.96;73.79;100111.09;1788868;78;21055;-75
2021/08/17 00:22:41;;;;;;;17.90;14.80;;;;;;;19.96;73.82;100111.09;1791507;78;21066;-75
2021/08/17 00:25:10;;;;;;;19.10;15.10;;;;;;;19.97;73.75;100114.03;1784523;78;21034;-75
2021/08/17 00:27:39;;;;;;;19.77;15.37;;;;;;;19.97;73.70;100112.67;1789924;78;21070;-76
2021/08/17 00:30:09;;;;;;;17.07;14.17;;;;;;;19.99;73.63;100114.50;1796585;78;21073;-76
2021/08/17 00:32:37;;;;;;;21.43;15.40;;;;;;;19.98;73.70;100110.22;1788847;79;21550;-76
2021/08/17 00:35:05;;;;;;;18.27;14.93;;;;;;;19.98;73.72;100110.22;1787248;78;21549;-75
2021/08/17 00:37:33;;;;;;;17.97;13.83;;;;;;;19.97;73.89;100112.67;1801637;78;21015;-74
2021/08/17 00:40:02;;;;;;;18.33;14.27;;;;;;;19.95;74.04;100108.16;1751451;80;21526;-77
2021/08/17 00:42:41;;;;;;;17.97;14.90;;;;;;;19.91;73.94;100110.17;1719306;82;21157;-75
2021/08/17 00:45:15;;;;;;;16.67;14.50;;;;;;;19.91;73.97;100108.03;1786380;78;21003;-76
2021/08/17 00:47:43;;;;;;;18.53;15.47;;;;;;;19.91;73.92;100109.39;1781415;78;21625;-75
2021/08/17 00:50:10;;;;;;;18.93;15.00;;;;;;;19.89;73.92;100111.05;1778336;78;21136;-77
2021/08/17 00:52:39;;;;;;;17.83;14.77;;;;;;;19.87;74.07;100110.61;1778104;78;21007;-77
2021/08/17 00:55:08;;;;;;;22.97;16.23;;;;;;;19.86;74.21;100110.36;1796026;78;21681;-78
2021/08/17 00:57:39;;;;;;;21.57;15.63;;;;;;;19.85;74.25;100114.77;1790033;78;21071;-77
2021/08/17 01:00:07;;;;;;;20.67;16.17;;;;;;;19.83;74.45;100105.59;1785936;79;21043;-78
2021/08/17 01:02:34;;;;;;;20.50;16.03;;;;;;;19.80;74.47;100110.88;1784863;78;21110;-77
2021/08/17 01:05:04;;;;;;;24.67;15.87;;;;;;;19.78;74.50;100111.80;1746250;79;21071;-77
2021/08/17 01:07:30;;;;;;;20.37;16.00;;;;;;;19.75;74.61;100111.09;1727353;82;21091;-77
2021/08/17 01:09:57;;;;;;;24.33;15.70;;;;;;;19.72;74.62;100114.45;1699347;81;21617;-77
2021/08/17 01:12:24;;;;;;;22.17;16.10;;;;;;;19.70;74.61;100113.42;1718574;81;21061;-76
2021/08/17 01:14:51;;;;;;;21.40;16.00;;;;;;;19.70;74.63;100113.98;1722212;82;21115;-77
2021/08/17 01:17:19;;;;;;;23.80;17.00;;;;;;;19.67;74.62;100116.22;1729817;80;21150;-75
2021/08/17 01:19:46;;;;;;;22.30;16.33;;;;;;;19.67;74.64;100113.51;1730372;81;21122;-77
2021/08/17 01:22:13;;;;;;;23.03;15.93;;;;;;;19.65;74.77;100112.27;1775113;79;21028;-77
2021/08/17 01:24:40;;;;;;;22.43;16.57;;;;;;;19.63;74.86;100111.23;1784301;78;21036;-78
2021/08/17 01:27:12;;;;;;;23.53;17.17;;;;;;;19.60;74.97;100117.27;1791127;78;21054;-78
2021/08/17 01:29:41;;;;;;;24.20;16.97;;;;;;;19.57;75.07;100114.42;1780476;79;21638;-78
2021/08/17 01:32:08;;;;;;;21.97;15.20;;;;;;;19.54;75.15;100112.38;1782323;78;22195;-78
2021/08/17 01:34:34;;;;;;;23.20;16.50;;;;;;;19.52;75.42;100111.92;1787267;79;21030;-78
2021/08/17 01:37:03;;;;;;;20.47;15.63;;;;;;;19.50;75.43;100110.09;1782399;78;21109;-71
2021/08/17 01:39:30;;;;;;;23.30;16.50;;;;;;;19.49;75.42;100111.22;1779669;78;21000;-71
2021/08/17 01:41:57;;;;;;;19.27;16.17;;;;;;;19.49;75.45;100112.58;1785102;78;20987;-71
2021/08/17 01:44:24;;;;;;;21.03;16.33;;;;;;;19.48;75.52;100110.97;1783456;78;22107;-71
2021/08/17 01:46:50;;;;;;;22.67;16.10;;;;;;;19.48;75.55;100112.32;1780674;78;21106;-71
2021/08/17 01:49:18;;;;;;;19.37;15.37;;;;;;;19.48;75.63;100115.03;1784463;79;21015;-70
2021/08/17 01:51:46;;;;;;;20.13;16.10;;;;;;;19.47;75.65;100111.53;1781159;78;21067;-71
2021/08/17 01:54:16;;;;;;;22.03;16.67;;;;;;;19.48;75.70;100116.39;1797117;78;21153;-71
2021/08/17 01:56:45;;;;;;;23.37;16.53;;;;;;;19.45;75.71;100110.52;1788989;78;21751;-71
2021/08/17 01:59:13;;;;;;;20.00;15.80;;;;;;;19.42;75.97;100111.73;1786999;78;22346;-70
2021/08/17 02:01:42;;;;;;;20.80;15.67;;;;;;;19.36;76.36;100104.92;1724213;81;21044;-70
2021/08/17 02:04:09;;;;;;;23.10;15.93;;;;;;;19.29;76.58;100109.48;1720969;81;21000;-71
2021/08/17 02:06:35;;;;;;;19.73;15.40;;;;;;;19.25;76.74;100107.73;1729660;80;21268;-70
2021/08/17 02:09:02;;;;;;;21.30;15.73;;;;;;;19.21;76.78;100108.95;1726171;80;21641;-70
2021/08/17 02:11:29;;;;;;;19.80;15.20;;;;;;;19.20;76.72;100110.08;1710785;80;21071;-70
2021/08/17 02:13:55;;;;;;;21.07;15.47;;;;;;;19.19;76.74;100109.30;1739550;81;21096;-70
2021/08/17 02:16:23;;;;;;;22.33;16.17;;;;;;;19.17;76.70;100110.73;1721300;82;21197;-70
2021/08/17 02:18:52;;;;;;;22.73;16.90;;;;;;;19.17;76.68;100106.67;1732900;80;20981;-70
2021/08/17 02:21:20;;;;;;;20.43;16.53;;;;;;;19.17;76.79;100095.84;1725493;81;21508;-70
2021/08/17 02:23:47;;;;;;;21.17;15.77;;;;;;;19.15;76.94;100095.36;1780849;78;21581;-69
2021/08/17 02:26:13;;;;;;;19.57;14.70;;;;;;;19.14;77.12;100089.16;1775969;78;21031;-70
2021/08/17 02:28:41;;;;;;;20.63;15.07;;;;;;;19.11;77.18;100089.80;1803897;78;21004;-70
2021/08/17 02:31:08;;;;;;;20.87;15.37;;;;;;;19.11;77.22;100093.08;1797180;78;21038;-70
2021/08/17 02:33:35;;;;;;;18.63;15.43;;;;;;;19.10;77.20;100096.34;1785098;78;21514;-71
2021/08/17 02:36:01;;;;;;;20.77;15.23;;;;;;;19.08;77.23;100091.81;1794803;78;20969;-72
2021/08/17 02:38:28;;;;;;;19.10;15.10;;;;;;;19.08;77.19;100088.31;1794615;78;21491;-71
2021/08/17 02:40:55;;;;;;;17.37;15.10;;;;;;;19.09;77.30;100091.27;1781912;78;21528;-70
2021/08/17 02:43:24;;;;;;;18.20;14.97;;;;;;;19.08;77.38;100099.14;1797161;78;21017;-71
2021/08/17 02:45:52;;;;;;;19.03;15.30;;;;;;;19.07;77.39;100099.70;1789590;78;21116;-70
2021/08/17 02:48:19;;;;;;;21.83;15.47;;;;;;;19.06;77.47;100098.13;1805387;78;20984;-70
2021/08/17 02:50:46;;;;;;;19.00;14.87;;;;;;;19.06;77.52;100095.98;1789252;78;21064;-71
2021/08/17 02:53:15;;;;;;;18.23;14.53;;;;;;;19.04;77.59;100093.58;1786659;78;21046;-70
2021/08/17 02:55:41;;;;;;;18.90;14.83;;;;;;;19.05;77.66;100095.73;1784454;78;20988;-70
2021/08/17 02:58:09;;;;;;;17.37;14.20;;;;;;;19.02;77.85;100091.78;1780224;78;22109;-70
2021/08/17 03:00:37;;;;;;;17.13;14.50;;;;;;;19.01;77.96;100094.80;1784505;78;22404;-70
2021/08/17 03:03:04;;;;;;;17.97;14.23;;;;;;;18.97;78.05;100092.73;1759852;81;21020;-70
2021/08/17 03:05:30;;;;;;;17.03;13.20;;;;;;;18.94;78.24;100087.97;1725246;80;21063;-71
2021/08/17 03:08:02;;;;;;;17.17;13.87;;;;;;;18.92;78.36;100090.76;1795005;79;21046;-71
2021/08/17 03:10:29;;;;;;;15.83;14.07;;;;;;;18.92;78.36;100092.93;1788657;78;21087;-71
2021/08/17 03:12:58;;;;;;;17.20;14.10;;;;;;;18.94;78.35;100089.89;1782358;78;20991;-71
2021/08/17 03:15:24;;;;;;;17.70;14.50;;;;;;;18.95;78.46;100088.23;1783569;79;21000;-71
2021/08/17 03:17:53;;;;;;;21.13;13.67;;;;;;;18.97;78.44;100081.91;1777762;78;21612;-71
2021/08/17 03:20:19;;;;;;;17.43;13.97;;;;;;;19.01;78.50;100075.84;1792384;78;20964;-71
2021/08/17 03:22:46;;;;;;;16.07;13.90;;;;;;;19.04;78.54;100076.55;1779847;79;21190;-71
2021/08/17 03:25:13;;;;;;;17.77;14.27;;;;;;;19.06;78.53;100074.33;1794436;78;21328;-71
2021/08/17 03:27:40;;;;;;;17.43;13.53;;;;;;;19.11;78.46;100076.84;1782213;78;21058;-71
2021/08/17 03:30:13;;;;;;;19.57;13.93;;;;;;;19.14;78.37;100068.86;1789289;78;21460;-70
2021/08/17 03:32:40;;;;;;;17.45;14.10;;;;;;;19.19;78.58;100072.75;1774538;78;21621;-70
2021/08/17 03:35:08;;;;;;;18.53;14.67;;;;;;;19.23;78.37;100076.95;1799108;78;21478;-71
2021/08/17 03:37:38;;;;;;;17.63;14.33;;;;;;;19.28;78.33;100071.89;1792721;78;21074;-70
2021/08/17 03:40:07;;;;;;;15.67;13.53;;;;;;;19.33;78.09;100071.16;1792378;78;20979;-70
2021/08/17 03:42:34;;;;;;;20.80;14.33;;;;;;;19.39;77.95;100081.24;1785767;78;21168;-70
2021/08/17 03:45:01;;;;;;;18.33;13.90;;;;;;;19.48;77.80;100075.76;1746576;81;21596;-70
2021/08/17 03:47:27;;;;;;;16.77;13.73;;;;;;;19.55;77.63;100078.77;1721344;81;21169;-70
2021/08/17 03:49:55;;;;;;;18.10;13.23;;;;;;;19.63;77.48;100075.19;1784239;78;21018;-70
2021/08/17 03:52:22;;;;;;;16.77;13.93;;;;;;;19.69;77.25;100075.27;1799567;78;21075;-70
2021/08/17 03:54:48;;;;;;;18.37;14.10;;;;;;;19.76;77.15;100071.45;1780139;78;20957;-70
2021/08/17 03:57:15;;;;;;;17.33;13.70;;;;;;;19.82;76.92;100072.06;1797204;78;21082;-71
2021/08/17 03:59:43;;;;;;;17.77;13.73;;;;;;;19.89;76.74;100071.76;1731228;81;21005;-71
2021/08/17 04:02:10;;;;;;;16.40;13.20;;;;;;;19.98;76.51;100073.63;1722109;82;20997;-71
2021/08/17 04:04:37;;;;;;;15.80;13.00;;;;;;;20.06;76.25;100077.59;1724917;82;21185;-70
2021/08/17 04:07:04;;;;;;;16.13;12.80;;;;;;;20.14;75.97;100073.24;1731586;81;21012;-71
2021/08/17 04:09:30;;;;;;;16.47;12.77;;;;;;;20.23;75.71;100073.93;1795004;78;22128;-71
2021/08/17 04:11:57;;;;;;;19.27;12.93;;;;;;;20.32;75.35;100079.28;1790484;79;21114;-71
2021/08/17 04:14:24;;;;;;;16.97;12.87;;;;;;;20.43;75.04;100070.94;1787558;78;21471;-70
2021/08/17 04:16:52;;;;;;;17.87;13.47;;;;;;;20.56;74.58;100071.80;1789638;79;21136;-71
2021/08/17 04:19:20;;;;;;;14.60;12.43;;;;;;;20.67;74.19;100073.55;1783003;78;20980;-69
2021/08/17 04:21:48;;;;;;;17.03;13.37;;;;;;;20.77;73.91;100074.46;1786628;78;20991;-70
2021/08/17 04:24:16;;;;;;;15.80;12.43;;;;;;;20.89;73.46;100077.17;1787976;78;21120;-70
2021/08/17 04:26:42;;;;;;;14.10;11.77;;;;;;;21.00;73.17;100077.55;1781484;79;20974;-70
2021/08/17 04:29:10;;;;;;;15.30;11.93;;;;;;;21.11;72.97;100078.66;1771140;78;21495;-71
2021/08/17 04:31:37;;;;;;;17.17;12.10;;;;;;;21.25;72.61;100076.96;1786162;78;21047;-70
2021/08/17 04:34:03;;;;;;;13.23;11.73;;;;;;;21.37;72.37;100074.84;1790234;78;21189;-70
2021/08/17 04:36:30;;;;;;;16.53;12.73;;;;;;;21.48;72.02;100072.66;1794385;78;22044;-70
2021/08/17 04:38:57;;;;;;;14.23;12.00;;;;;;;21.61;71.58;100076.73;1786600;78;21051;-71
2021/08/17 04:41:25;;;;;;;18.93;11.80;;;;;;;21.71;71.21;100077.04;1788832;78;21086;-71
2021/08/17 04:43:53;;;;;;;15.03;11.53;;;;;;;21.84;70.78;100085.95;1800396;79;20942;-70
2021/08/17 04:46:21;;;;;;;15.23;12.57;;;;;;;21.96;70.37;100083.21;1781797;78;21551;-71
2021/08/17 04:48:49;;;;;;;15.30;11.77;;;;;;;22.08;69.91;100084.29;1787610;78;21485;-70
2021/08/17 04:51:16;;;;;;;15.10;11.30;;;;;;;22.18;69.31;100082.50;1794450;78;21004;-70
2021/08/17 04:53:43;;;;;;;14.47;12.03;;;;;;;22.30;68.86;100089.22;1773344;78;21032;-70
2021/08/17 04:56:09;;;;;;;14.23;11.40;;;;;;;22.41;68.73;100086.81;1781179;78;21031;-71
2021/08/17 04:58:38;;;;;;;16.30;12.20;;;;;;;22.53;68.17;100087.30;1744009;80;21004;-71
2021/08/17 05:01:04;;;;;;;14.80;11.80;;;;;;;22.65;67.70;100089.38;1747800;80;21522;-71
2021/08/17 05:03:32;;;;;;;14.70;11.43;;;;;;;22.78;67.49;100092.83;1715619;81;21095;-71
2021/08/17 05:05:59;;;;;;;14.50;11.17;;;;;;;22.92;67.09;100096.47;1728030;82;21000;-71
2021/08/17 05:08:26;;;;;;;16.60;11.80;;;;;;;23.04;66.79;100095.64;1739956;80;21171;-71
2021/08/17 05:10:55;;;;;;;16.37;12.37;;;;;;;23.15;66.54;100094.73;1792434;78;21012;-70
2021/08/17 05:13:23;;;;;;;16.17;11.70;;;;;;;23.28;66.21;100101.45;1779238;78;20982;-70
2021/08/17 05:15:51;;;;;;;17.27;11.47;;;;;;;23.39;65.80;100097.81;1783767;78;20925;-70
2021/08/17 05:18:19;;;;;;;15.97;11.53;;;;;;;23.51;65.08;100101.01;1788136;78;21039;-71
2021/08/17 05:20:47;;;;;;;14.23;11.50;;;;;;;23.61;64.26;100101.82;1793449;78;21066;-70
2021/08/17 05:23:15;;;;;;;16.53;11.40;;;;;;;23.73;63.66;100100.16;1785749;78;21572;-71
2021/08/17 05:25:43;;;;;;;15.77;11.03;;;;;;;23.84;62.88;100101.17;1776816;78;21775;-70
2021/08/17 05:28:09;;;;;;;15.73;11.10;;;;;;;23.94;62.41;100106.63;1787527;78;20940;-71
2021/08/17 05:30:37;;;;;;;13.63;10.97;;;;;;;24.03;62.13;100103.91;1788351;78;21063;-71
2021/08/17 05:33:08;;;;;;;14.68;11.20;;;;;;;24.15;62.19;100103.55;1729511;82;21014;-71
2021/08/17 05:35:35;;;;;;;14.57;11.60;;;;;;;24.24;61.79;100099.45;1732892;81;21538;-71
2021/08/17 05:38:02;;;;;;;16.40;11.33;;;;;;;24.31;61.72;100102.30;1725022;81;21103;-71
2021/08/17 05:40:29;;;;;;;15.30;11.67;;;;;;;24.38;61.25;100095.41;1723619;81;21005;-71
2021/08/17 05:42:55;;;;;;;14.00;10.70;;;;;;;24.46;60.92;100095.80;1729420;81;21244;-71
2021/08/17 05:45:24;;;;;;;15.70;11.67;;;;;;;24.55;60.56;100097.73;1721426;81;21120;-71
2021/08/17 05:47:50;;;;;;;18.10;11.90;;;;;;;24.65;60.39;100107.27;1786856;78;20926;-72
2021/08/17 05:50:19;;;;;;;16.67;11.50;;;;;;;24.73;60.53;100108.37;1782287;79;21156;-72
2021/08/17 05:52:47;;;;;;;14.53;11.60;;;;;;;24.82;60.36;100106.00;1791973;79;21107;-71
2021/08/17 05:55:15;;;;;;;16.13;11.63;;;;;;;24.89;60.01;100111.00;1786940;78;21058;-71
2021/08/17 05:58:00;;;;;;;14.27;11.40;;;;;;;24.96;59.86;100104.86;1787341;78;21059;-71
2021/08/17 06:00:27;;;;;;;14.27;10.97;;;;;;;25.06;59.57;100100.73;1787465;78;20996;-70
2021/08/17 06:02:54;;;;;;;16.57;11.00;;;;;;;25.15;59.00;100101.30;1791660;78;21477;-71
2021/08/17 06:05:21;;;;;;;13.30;11.17;;;;;;;25.24;59.22;100100.47;1783160;79;20962;-70
2021/08/17 06:07:50;;;;;;;15.40;10.97;;;;;;;25.34;59.21;100097.69;1792437;79;20989;-70
2021/08/17 06:10:16;;;;;;;14.80;10.80;;;;;;;25.43;58.74;100099.56;1796521;78;21080;-70
2021/08/17 06:12:44;;;;;;;14.50;10.77;;;;;;;25.55;58.65;100102.67;1790151;78;20992;-69
2021/08/17 06:15:11;;;;;;;14.70;10.90;;;;;;;25.64;57.94;100104.56;1786043;78;21508;-69
2021/08/17 06:17:38;;;;;;;15.33;10.60;;;;;;;25.75;57.67;100108.22;1789177;78;21043;-69
2021/08/17 06:20:08;;;;;;;15.23;10.77;;;;;;;25.84;56.97;100100.56;1795713;78;21538;-69
2021/08/17 06:22:35;;;;;;;13.97;10.13;;;;;;;25.95;56.88;100096.00;1786964;78;21799;-69
2021/08/17 06:25:05;;;;;;;13.13;10.17;;;;;;;26.06;56.50;100098.89;1782255;78;21027;-69
2021/08/17 06:27:35;;;;;;;18.50;10.93;;;;;;;26.14;55.73;100095.05;1785726;78;21710;-69
2021/08/17 06:30:04;;;;;;;12.77;10.00;;;;;;;26.20;55.25;100093.56;1783884;78;21467;-70
2021/08/17 06:32:31;;;;;;;14.33;10.30;;;;;;;26.27;54.81;100087.38;1784317;78;21163;-69
2021/08/17 06:34:58;;;;;;;14.37;10.80;;;;;;;26.31;54.72;100092.30;1784087;78;21006;-69
2021/08/17 06:37:26;;;;;;;14.80;11.17;;;;;;;26.37;54.48;100092.18;1788471;78;21021;-69
2021/08/17 06:39:52;;;;;;;13.17;10.23;;;;;;;26.42;54.29;100093.78;1788549;78;21129;-72
2021/08/17 06:42:19;;;;;;;16.47;10.83;;;;;;;26.49;54.37;100093.09;1783964;78;21498;-69
2021/08/17 06:44:46;;;;;;;15.13;10.40;;;;;;;26.57;53.79;100085.95;1781403;78;21064;-70
2021/08/17 06:47:12;;;;;;;15.03;10.37;;;;;;;26.66;53.73;100089.17;1792466;78;21048;-69
2021/08/17 06:49:39;;;;;;;13.00;10.67;;;;;;;26.76;53.98;100088.28;1785218;78;20925;-70
2021/08/17 06:52:06;;;;;;;13.83;9.97;;;;;;;26.88;53.96;100092.09;1783755;78;21494;-70
2021/08/17 06:54:33;;;;;;;13.37;10.37;;;;;;;26.98;53.59;100086.49;1792975;78;21027;-70
2021/08/17 06:57:00;;;;;;;11.97;9.60;;;;;;;27.09;53.44;100088.75;1784883;78;21058;-70
2021/08/17 06:59:27;;;;;;;13.43;9.63;;;;;;;27.19;53.10;100086.70;1786736;79;21027;-69
2021/08/17 07:01:54;;;;;;;13.07;9.90;;;;;;;27.28;52.73;100084.41;1780320;78;21027;-69
2021/08/17 07:04:23;;;;;;;13.17;9.50;;;;;;;27.37;52.69;100085.44;1791509;78;21439;-70
2021/08/17 07:06:50;;;;;;;11.77;10.27;;;;;;;27.45;52.82;100077.47;1796206;79;20920;-70
2021/08/17 07:09:17;;;;;;;11.07;8.93;;;;;;;27.51;52.42;100077.87;1789526;78;21090;-70
2021/08/17 07:11:45;;;;;;;14.07;9.07;;;;;;;27.59;52.23;100072.05;1790558;78;21047;-70
2021/08/17 07:14:11;;;;;;;12.20;9.23;;;;;;;27.68;51.87;100071.70;1791415;78;21419;-70
2021/08/17 07:16:38;;;;;;;9.90;8.90;;;;;;;27.79;51.77;100069.03;1785806;78;21109;-69
2021/08/17 07:19:04;;;;;;;13.37;9.17;;;;;;;27.91;51.59;100069.29;1783673;78;21031;-70
2021/08/17 07:21:31;;;;;;;16.60;9.73;;;;;;;28.00;50.60;100058.15;1784265;78;21548;-70
2021/08/17 07:23:59;;;;;;;12.63;9.43;;;;;;;28.09;50.07;100064.63;1784600;78;21083;-71
2021/08/17 07:26:26;;;;;;;15.27;9.03;;;;;;;28.18;49.38;100071.92;1796329;78;21076;-70
2021/08/17 07:28:53;;;;;;;15.80;8.97;;;;;;;28.26;49.13;100069.96;1795037;78;21144;-70
2021/08/17 07:31:19;;;;;;;12.73;9.10;;;;;;;28.33;48.88;100064.48;1785986;78;20979;-70
2021/08/17 07:33:46;;;;;;;15.30;8.83;;;;;;;28.41;48.92;100071.61;1790042;78;21522;-70
2021/08/17 07:36:13;;;;;;;12.07;8.43;;;;;;;28.48;48.72;100066.12;1727376;81;21073;-71
2021/08/17 07:38:41;;;;;;;16.30;8.83;;;;;;;28.59;49.08;100062.59;1728440;81;21023;-70
2021/08/17 07:41:08;;;;;;;14.90;9.20;;;;;;;28.72;48.36;100061.81;1719934;81;22172;-71
2021/08/17 07:43:35;;;;;;;11.87;8.60;;;;;;;28.83;48.20;100064.58;1729624;81;21103;-70
2021/08/17 07:46:01;;;;;;;13.53;9.03;;;;;;;28.94;47.99;100065.34;1727019;80;21570;-70
2021/08/17 07:48:28;;;;;;;14.73;10.03;;;;;;;29.04;47.24;100066.55;1725839;81;21079;-70
2021/08/17 07:50:54;;;;;;;15.00;9.03;;;;;;;29.11;46.68;100066.53;1726494;80;21093;-70
2021/08/17 07:53:21;;;;;;;14.87;9.03;;;;;;;29.16;46.71;100064.00;1791227;78;21106;-70
2021/08/17 07:55:48;;;;;;;11.30;8.53;;;;;;;29.22;46.30;100066.55;1790701;78;21139;-70
2021/08/17 07:58:14;;;;;;;16.77;9.27;;;;;;;29.27;45.87;100063.97;1787485;79;21066;-70
2021/08/17 08:00:41;;;;;;;16.53;9.00;;;;;;;29.36;46.07;100067.10;1785245;78;21573;-70
2021/08/17 08:03:08;;;;;;;14.10;8.83;;;;;;;29.43;45.67;100065.70;1792654;78;21194;-70
2021/08/17 08:05:36;;;;;;;14.77;9.10;;;;;;;29.48;45.10;100072.16;1791163;78;21147;-70
2021/08/17 08:08:03;;;;;;;16.27;8.23;;;;;;;29.54;44.83;100072.55;1787344;79;21563;-70
2021/08/17 08:10:30;;;;;;;13.93;8.03;;;;;;;29.59;44.92;100068.80;1783536;79;21016;-71
2021/08/17 08:12:56;;;;;;;12.10;7.97;;;;;;;29.68;45.34;100060.13;1786521;78;21035;-70
2021/08/17 08:15:23;;;;;;;13.47;8.43;;;;;;;29.77;44.74;100062.47;1791002;78;21026;-70
2021/08/17 08:17:51;;;;;;;10.47;7.43;;;;;;;29.84;45.01;100060.45;1785364;78;21992;-71
2021/08/17 08:20:20;;;;;;;12.23;7.33;;;;;;;29.93;44.79;100055.13;1797161;79;21033;-70
2021/08/17 08:22:49;;;;;;;10.10;7.67;;;;;;;29.99;44.10;100063.94;1792746;78;21111;-70
2021/08/17 08:25:16;;;;;;;10.30;7.77;;;;;;;30.06;43.98;100057.61;1787331;78;21038;-70
2021/08/17 08:27:43;;;;;;;11.30;7.73;;;;;;;30.11;44.36;100056.61;1789432;78;21028;-70
2021/08/17 08:30:13;;;;;;;11.48;7.70;;;;;;;30.19;44.13;100055.99;1789217;79;21540;-70
2021/08/17 08:32:39;;;;;;;10.93;7.53;;;;;;;30.28;43.52;100044.53;1772317;79;21055;-70
2021/08/17 08:35:08;;;;;;;11.57;7.10;;;;;;;30.37;43.68;100056.67;1788877;78;21582;-70
2021/08/17 08:37:35;;;;;;;13.55;8.03;;;;;;;30.48;43.98;100049.70;1786732;78;21157;-71
2021/08/17 08:40:03;;;;;;;16.37;8.00;;;;;;;30.60;43.33;100053.93;1785303;79;21552;-70
2021/08/17 08:42:30;;;;;;;13.22;7.70;;;;;;;30.70;42.61;100047.58;1788261;79;22137;-70
2021/08/17 08:44:57;;;;;;;12.35;7.60;;;;;;;30.78;42.44;100046.94;1779042;78;21431;-70
2021/08/17 08:47:25;;;;;;;10.95;6.92;;;;;;;30.85;42.37;100045.49;1790980;78;21001;-70
2021/08/17 08:49:53;;;;;;;12.68;7.25;;;;;;;30.91;41.79;100038.35;1781961;79;21059;-71
2021/08/17 08:52:20;;;;;;;12.10;7.30;;;;;;;30.98;41.89;100039.66;1781386;78;21075;-70
2021/08/17 08:54:47;;;;;;;10.90;6.33;;;;;;;31.06;41.29;100037.03;1784565;79;22606;-70
2021/08/17 08:57:14;;;;;;;10.08;6.62;;;;;;;31.15;40.40;100038.52;1793950;78;21070;-70
2021/08/17 08:59:41;;;;;;;9.75;6.30;;;;;;;31.22;40.30;100039.81;1791246;79;21088;-70
2021/08/17 09:02:13;;;;;;;8.33;5.75;;;;;;;31.34;40.51;100041.30;1790498;79;21356;-70
2021/08/17 09:04:55;;;;;;;8.75;5.80;;;;;;;31.45;39.95;100038.59;1785814;78;21057;-71
2021/08/17 09:07:42;;;;;;;11.08;5.70;;;;;;;31.55;39.81;100041.05;1789187;78;21559;-71
2021/08/17 09:10:17;;;;;;;10.82;6.03;;;;;;;31.61;38.58;100045.52;1784407;78;20982;-70
2021/08/17 09:12:50;;;;;;;10.43;6.12;;;;;;;31.65;37.42;100046.25;1785837;78;21050;-71
2021/08/17 09:15:25;;;;;;;10.25;6.12;;;;;;;31.68;36.77;100035.16;1783963;78;21495;-71
2021/08/17 09:18:11;;;;;;;7.85;6.08;;;;;;;31.70;36.44;100040.28;1780797;78;21436;-69
2021/08/17 09:20:44;;;;;;;8.28;6.65;;;;;;;31.74;37.08;100038.25;1787598;79;22140;-70
2021/08/17 09:23:30;;;;;;;8.30;6.33;;;;;;;31.82;37.40;100038.36;1795438;78;20984;-74
2021/08/17 09:25:59;;;;;;;8.53;5.62;;;;;;;31.91;37.18;100043.39;1790114;79;21110;-72
2021/08/17 09:28:35;;;;;;;7.47;5.55;;;;;;;32.01;36.61;100041.08;1787573;78;21105;-72
2021/08/17 09:31:32;;;;;;;7.53;5.30;;;;;;;32.05;36.46;100037.69;1787551;78;21144;-72
2021/08/17 09:33:59;;;;;;;10.48;5.37;;;;;;;32.11;36.55;100042.91;1784933;78;21795;-71
2021/08/17 09:36:36;;;;;;;9.95;5.10;;;;;;;32.17;36.69;100037.70;1793169;78;21074;-73
2021/08/17 09:39:03;;;;;;;8.93;5.37;;;;;;;32.23;37.28;100040.17;1785959;78;21039;-72
2021/08/17 09:41:30;;;;;;;8.68;5.65;;;;;;;32.34;36.62;100034.48;1781996;78;21379;-72
2021/08/17 09:44:02;;;;;;;11.20;5.22;;;;;;;32.42;36.67;100036.76;1775216;79;21071;-72
2021/08/17 09:46:37;;;;;;;;;;;;;;;32.52;35.61;100025.34;1784020;78;21143;-73
2021/08/17 09:49:27;;;;;;;10.98;5.33;;;;;;;32.52;35.44;100021.81;1784776;78;20535;-74
2021/08/17 09:51:54;;;;;;;6.30;4.97;;;;;;;32.53;36.48;100021.98;1793907;78;21028;-71
2021/08/17 09:54:24;;;;;;;9.03;4.83;;;;;;;32.58;35.53;100006.31;1783682;78;21101;-71
2021/08/17 09:57:00;;;;;;;6.37;4.67;;;;;;;32.60;34.71;100013.56;1783022;78;20933;-71
2021/08/17 09:59:28;;;;;;;7.80;5.17;;;;;;;32.57;33.38;100010.25;1780634;78;22088;-69
2021/08/17 10:01:56;;;;;;;11.08;4.70;;;;;;;32.48;33.82;100016.34;1791979;79;21047;-68
2021/08/17 10:04:23;;;;;;;6.33;4.80;;;;;;;32.48;34.24;100016.91;1782364;78;20999;-70
2021/08/17 10:06:51;;;;;;;6.47;5.00;;;;;;;32.54;34.19;100020.77;1792922;78;21042;-71
2021/08/17 10:09:18;;;;;;;6.15;4.70;;;;;;;32.58;33.97;100020.13;1789327;78;21154;-73
2021/08/17 10:11:46;;;;;;;7.92;5.12;;;;;;;32.60;34.04;100018.48;1793639;79;21476;-72
2021/08/17 10:14:14;;;;;;;6.67;4.83;;;;;;;32.57;33.93;100020.71;1788921;79;21040;-71
2021/08/17 10:16:42;;;;;;;7.75;4.92;;;;;;;32.57;33.69;100019.93;1795068;78;21503;-72
2021/08/17 10:19:15;;;;;;;7.72;4.92;;;;;;;32.55;33.50;100024.52;1786274;78;21545;-69
2021/08/17 10:21:46;;;;;;;7.62;4.90;;;;;;;32.57;34.06;100024.08;1784283;78;21016;-70
2021/08/17 10:24:34;;;;;;;8.35;5.15;;;;;;;32.56;34.32;100024.69;1787245;79;21064;-70
2021/08/17 10:27:26;;;;;;;8.08;4.60;;;;;;;32.61;34.25;100024.22;1785765;78;22102;-72
2021/08/17 10:30:04;;;;;;;7.33;5.05;;;;;;;32.63;33.98;100033.46;1781329;78;21036;-70
2021/08/17 10:32:58;;;;;;;6.50;4.65;;;;;;;32.64;34.55;100037.20;1786769;78;21070;-71
2021/08/17 10:35:48;;;;;;;7.22;4.58;;;;;;;32.66;34.41;100045.06;1790362;78;21496;-71
2021/08/17 10:38:23;;;;;;;6.30;4.63;;;;;;;32.65;34.17;100042.91;1787166;78;21672;-71
2021/08/17 10:40:58;;;;;;;6.42;4.45;;;;;;;32.66;34.73;100046.45;1790549;78;21252;-72
2021/08/17 10:43:33;;;;;;;6.17;4.53;;;;;;;32.64;34.03;100043.31;1784422;78;21038;-72
2021/08/17 10:46:07;;;;;;;9.40;4.78;;;;;;;32.61;34.22;100044.15;1784351;78;21055;-71
2021/08/17 10:48:54;;;;;;;7.55;4.60;;;;;;;32.53;34.17;100040.73;1787428;78;21349;-72
2021/08/17 10:51:25;;;;;;;6.70;4.30;;;;;;;32.53;34.23;100040.73;1787753;78;21577;-72
2021/08/17 10:54:11;;;;;;;7.28;4.87;;;;;;;32.60;34.75;100038.45;1785921;78;21206;-71
2021/08/17 10:56:38;;;;;;;7.35;4.70;;;;;;;32.70;34.51;100037.48;1787039;79;20990;-70
2021/08/17 10:59:06;;;;;;;6.75;5.03;;;;;;;32.76;33.96;100033.04;1785171;78;21027;-71
2021/08/17 11:01:39;;;;;;;6.28;4.60;;;;;;;32.78;33.58;100036.18;1779117;79;21451;-72
2021/08/17 11:04:21;;;;;;;7.00;4.40;;;;;;;32.79;33.47;100039.11;1787145;78;21129;-72
2021/08/17 11:06:55;;;;;;;6.60;4.37;;;;;;;32.81;33.35;100044.23;1783882;79;21307;-72
2021/08/17 11:09:31;;;;;;;7.15;4.85;;;;;;;32.80;33.50;100039.28;1792687;78;21562;-71
2021/08/17 11:12:00;;;;;;;6.78;5.03;;;;;;;32.77;33.47;100040.13;1751833;78;21019;-72
2021/08/17 11:14:29;;;;;;;7.15;4.58;;;;;;;32.73;33.04;100035.87;1791347;78;21093;-71
2021/08/17 11:17:11;;;;;;;7.53;4.62;;;;;;;32.72;33.42;100028.78;1785288;78;21102;-73
2021/08/17 11:19:39;;;;;;;6.05;4.22;;;;;;;32.71;33.13;100026.63;1785411;78;21020;-71
2021/08/17 11:22:10;;;;;;;8.28;4.90;;;;;;;32.72;33.26;100027.41;1735861;80;21042;-70